sensor_id;sensor_type;location;lat;lon;timestamp;temperature;humidity
7248;DHT22;3665;51.034;13.642;2023-05-10T00:03:27;11.20;1.00
7248;DHT22;3665;51.034;13.642;2023-05-10T00:08:17;11.10;1.00
7248;DHT22;3665;51.034;13.642;2023-05-10T00:13:04;10.90;1.00
7248;DHT22;3665;51.034;13.642;2023-05-10T00:17:52;11.00;1.00
7248;DHT22;3665;51.034;13.642;2023-05-10T00:22:40;11.00;1.00
7248;DHT22;3665;51.034;13.642;2023-05-10T00:27:32;10.90;1.00
7248;DHT22;3665;51.034;13.642;2023-05-10T00:32:54;10.90;1.00
7248;DHT22;3665;51.034;13.642;2023-05-10T00:38:08;10.80;1.00
7248;DHT22;3665;51.034;13.642;2023-05-10T00:42:54;10.70;1.00
7248;DHT22;3665;51.034;13.642;2023-05-10T00:47:44;10.80;1.00
7248;DHT22;3665;51.034;13.642;2023-05-10T00:52:30;10.70;1.00
7248;DHT22;3665;51.034;13.642;2023-05-10T00:57:35;10.40;1.00
7248;DHT22;3665;51.034;13.642;2023-05-10T01:02:22;10.40;1.00
7248;DHT22;3665;51.034;13.642;2023-05-10T01:07:10;10.50;1.00
7248;DHT22;3665;51.034;13.642;2023-05-10T01:11:58;10.40;1.00
7248;DHT22;3665;51.034;13.642;2023-05-10T01:17:03;10.50;1.00
7248;DHT22;3665;51.034;13.642;2023-05-10T01:21:58;10.40;1.00
7248;DHT22;3665;51.034;13.642;2023-05-10T01:27:17;10.30;1.00
7248;DHT22;3665;51.034;13.642;2023-05-10T01:32:31;10.20;1.00
7248;DHT22;3665;51.034;13.642;2023-05-10T01:37:21;10.00;1.00
7248;DHT22;3665;51.034;13.642;2023-05-10T01:42:25;9.90;1.00
7248;DHT22;3665;51.034;13.642;2023-05-10T01:47:15;10.00;1.00
7248;DHT22;3665;51.034;13.642;2023-05-10T01:52:06;9.90;1.00
7248;DHT22;3665;51.034;13.642;2023-05-10T01:57:05;9.90;1.00
7248;DHT22;3665;51.034;13.642;2023-05-10T02:01:50;9.90;1.00
7248;DHT22;3665;51.034;13.642;2023-05-10T02:06:46;9.90;1.00
7248;DHT22;3665;51.034;13.642;2023-05-10T02:11:48;9.80;1.00
7248;DHT22;3665;51.034;13.642;2023-05-10T02:16:32;9.60;1.00
7248;DHT22;3665;51.034;13.642;2023-05-10T02:21:20;9.40;1.00
7248;DHT22;3665;51.034;13.642;2023-05-10T02:26:05;9.20;1.00
7248;DHT22;3665;51.034;13.642;2023-05-10T02:30:59;9.20;1.00
7248;DHT22;3665;51.034;13.642;2023-05-10T02:35:43;9.00;1.00
7248;DHT22;3665;51.034;13.642;2023-05-10T02:40:30;8.80;1.00
7248;DHT22;3665;51.034;13.642;2023-05-10T02:45:33;8.60;1.00
7248;DHT22;3665;51.034;13.642;2023-05-10T02:50:26;8.80;1.00
7248;DHT22;3665;51.034;13.642;2023-05-10T02:55:14;8.80;1.00
7248;DHT22;3665;51.034;13.642;2023-05-10T02:59:58;8.90;1.00
7248;DHT22;3665;51.034;13.642;2023-05-10T03:04:47;8.90;1.00
7248;DHT22;3665;51.034;13.642;2023-05-10T03:09:36;8.90;1.00
7248;DHT22;3665;51.034;13.642;2023-05-10T03:14:45;8.70;1.00
7248;DHT22;3665;51.034;13.642;2023-05-10T03:20:08;8.70;1.00
7248;DHT22;3665;51.034;13.642;2023-05-10T03:25:19;8.70;1.00
7248;DHT22;3665;51.034;13.642;2023-05-10T03:30:08;8.80;1.00
7248;DHT22;3665;51.034;13.642;2023-05-10T03:34:56;8.80;1.00
7248;DHT22;3665;51.034;13.642;2023-05-10T03:39:44;8.90;1.00
7248;DHT22;3665;51.034;13.642;2023-05-10T03:44:30;9.00;1.00
7248;DHT22;3665;51.034;13.642;2023-05-10T03:49:21;9.20;1.00
7248;DHT22;3665;51.034;13.642;2023-05-10T03:54:08;9.20;1.00
7248;DHT22;3665;51.034;13.642;2023-05-10T03:58:53;9.50;1.00
7248;DHT22;3665;51.034;13.642;2023-05-10T04:03:46;9.80;1.00
7248;DHT22;3665;51.034;13.642;2023-05-10T04:08:31;9.80;1.00
7248;DHT22;3665;51.034;13.642;2023-05-10T04:13:21;9.80;1.00
7248;DHT22;3665;51.034;13.642;2023-05-10T04:18:08;9.90;1.00
7248;DHT22;3665;51.034;13.642;2023-05-10T04:22:55;10.00;1.00
7248;DHT22;3665;51.034;13.642;2023-05-10T04:27:43;10.20;1.00
7248;DHT22;3665;51.034;13.642;2023-05-10T04:32:30;10.40;1.00
7248;DHT22;3665;51.034;13.642;2023-05-10T04:37:40;10.60;1.00
7248;DHT22;3665;51.034;13.642;2023-05-10T04:42:41;10.80;1.00
7248;DHT22;3665;51.034;13.642;2023-05-10T04:47:27;11.10;1.00
7248;DHT22;3665;51.034;13.642;2023-05-10T04:52:16;11.20;1.00
7248;DHT22;3665;51.034;13.642;2023-05-10T04:57:02;11.50;1.00
7248;DHT22;3665;51.034;13.642;2023-05-10T05:02:11;11.70;1.00
7248;DHT22;3665;51.034;13.642;2023-05-10T05:07:01;11.90;1.00
7248;DHT22;3665;51.034;13.642;2023-05-10T05:11:59;12.00;1.00
7248;DHT22;3665;51.034;13.642;2023-05-10T05:16:51;12.20;1.00
7248;DHT22;3665;51.034;13.642;2023-05-10T05:21:39;12.40;1.00
7248;DHT22;3665;51.034;13.642;2023-05-10T05:26:23;12.60;1.00
7248;DHT22;3665;51.034;13.642;2023-05-10T05:31:19;12.90;1.00
7248;DHT22;3665;51.034;13.642;2023-05-10T05:36:15;13.10;1.00
7248;DHT22;3665;51.034;13.642;2023-05-10T05:41:05;13.30;1.00
7248;DHT22;3665;51.034;13.642;2023-05-10T05:45:53;13.60;1.00
7248;DHT22;3665;51.034;13.642;2023-05-10T05:50:40;13.60;1.00
7248;DHT22;3665;51.034;13.642;2023-05-10T05:55:52;13.80;1.00
7248;DHT22;3665;51.034;13.642;2023-05-10T06:00:49;14.30;1.00
7248;DHT22;3665;51.034;13.642;2023-05-10T06:05:35;14.50;1.00
7248;DHT22;3665;51.034;13.642;2023-05-10T06:10:27;14.90;1.00
7248;DHT22;3665;51.034;13.642;2023-05-10T06:15:19;15.00;1.00
7248;DHT22;3665;51.034;13.642;2023-05-10T06:20:17;15.10;1.00
7248;DHT22;3665;51.034;13.642;2023-05-10T06:25:04;15.60;1.00
7248;DHT22;3665;51.034;13.642;2023-05-10T06:29:51;15.60;1.00
7248;DHT22;3665;51.034;13.642;2023-05-10T06:34:54;16.20;1.00
7248;DHT22;3665;51.034;13.642;2023-05-10T06:39:46;16.50;1.00
7248;DHT22;3665;51.034;13.642;2023-05-10T06:44:30;16.60;1.00
7248;DHT22;3665;51.034;13.642;2023-05-10T06:49:39;17.00;1.00
7248;DHT22;3665;51.034;13.642;2023-05-10T06:54:23;17.10;1.00
7248;DHT22;3665;51.034;13.642;2023-05-10T06:59:11;17.40;1.00
7248;DHT22;3665;51.034;13.642;2023-05-10T07:04:03;17.90;1.00
7248;DHT22;3665;51.034;13.642;2023-05-10T07:08:47;18.20;1.00
7248;DHT22;3665;51.034;13.642;2023-05-10T07:13:32;18.20;1.00
7248;DHT22;3665;51.034;13.642;2023-05-10T07:18:27;18.40;1.00
7248;DHT22;3665;51.034;13.642;2023-05-10T07:23:43;18.80;1.00
7248;DHT22;3665;51.034;13.642;2023-05-10T07:28:30;19.30;1.00
7248;DHT22;3665;51.034;13.642;2023-05-10T07:33:19;19.50;1.00
7248;DHT22;3665;51.034;13.642;2023-05-10T07:38:09;19.90;1.00
7248;DHT22;3665;51.034;13.642;2023-05-10T07:42:54;20.00;1.00
7248;DHT22;3665;51.034;13.642;2023-05-10T07:47:42;20.40;1.00
7248;DHT22;3665;51.034;13.642;2023-05-10T07:52:27;20.80;1.00
7248;DHT22;3665;51.034;13.642;2023-05-10T07:57:19;20.80;1.00
7248;DHT22;3665;51.034;13.642;2023-05-10T08:02:26;20.00;1.00
7248;DHT22;3665;51.034;13.642;2023-05-10T08:07:10;20.70;1.00
7248;DHT22;3665;51.034;13.642;2023-05-10T08:12:00;21.10;1.00
7248;DHT22;3665;51.034;13.642;2023-05-10T08:16:46;21.30;1.00
7248;DHT22;3665;51.034;13.642;2023-05-10T08:21:34;21.00;1.00
7248;DHT22;3665;51.034;13.642;2023-05-10T08:26:23;21.40;1.00
7248;DHT22;3665;51.034;13.642;2023-05-10T08:31:10;21.60;1.00
7248;DHT22;3665;51.034;13.642;2023-05-10T08:36:19;22.00;1.00
7248;DHT22;3665;51.034;13.642;2023-05-10T08:41:05;22.50;1.00
7248;DHT22;3665;51.034;13.642;2023-05-10T08:45:53;22.20;1.00
7248;DHT22;3665;51.034;13.642;2023-05-10T08:50:41;22.20;1.00
7248;DHT22;3665;51.034;13.642;2023-05-10T08:55:27;22.50;1.00
7248;DHT22;3665;51.034;13.642;2023-05-10T09:00:33;23.10;1.00
7248;DHT22;3665;51.034;13.642;2023-05-10T09:05:18;23.20;1.00
7248;DHT22;3665;51.034;13.642;2023-05-10T09:10:08;23.10;1.00
7248;DHT22;3665;51.034;13.642;2023-05-10T09:14:54;23.60;1.00
7248;DHT22;3665;51.034;13.642;2023-05-10T09:19:42;24.10;1.00
7248;DHT22;3665;51.034;13.642;2023-05-10T09:24:35;24.30;1.00
7248;DHT22;3665;51.034;13.642;2023-05-10T09:29:39;24.00;1.00
7248;DHT22;3665;51.034;13.642;2023-05-10T09:34:32;24.50;1.00
7248;DHT22;3665;51.034;13.642;2023-05-10T09:39:50;24.60;1.00
7248;DHT22;3665;51.034;13.642;2023-05-10T09:44:40;24.60;1.00
7248;DHT22;3665;51.034;13.642;2023-05-10T09:49:34;24.70;1.00
7248;DHT22;3665;51.034;13.642;2023-05-10T09:54:23;24.20;1.00
7248;DHT22;3665;51.034;13.642;2023-05-10T09:59:11;24.60;1.00
7248;DHT22;3665;51.034;13.642;2023-05-10T10:03:58;24.10;1.00
7248;DHT22;3665;51.034;13.642;2023-05-10T10:08:49;24.00;1.00
7248;DHT22;3665;51.034;13.642;2023-05-10T10:13:50;23.70;1.00
7248;DHT22;3665;51.034;13.642;2023-05-10T10:18:39;24.00;1.00
7248;DHT22;3665;51.034;13.642;2023-05-10T10:23:45;23.50;1.00
7248;DHT22;3665;51.034;13.642;2023-05-10T10:28:39;24.00;1.00
7248;DHT22;3665;51.034;13.642;2023-05-10T10:33:43;24.30;1.00
7248;DHT22;3665;51.034;13.642;2023-05-10T10:38:54;24.00;1.00
7248;DHT22;3665;51.034;13.642;2023-05-10T10:43:44;24.40;1.00
7248;DHT22;3665;51.034;13.642;2023-05-10T10:48:32;24.00;1.00
7248;DHT22;3665;51.034;13.642;2023-05-10T10:53:19;22.70;1.00
7248;DHT22;3665;51.034;13.642;2023-05-10T10:58:12;23.20;1.00
7248;DHT22;3665;51.034;13.642;2023-05-10T11:03:12;23.30;1.00
7248;DHT22;3665;51.034;13.642;2023-05-10T11:08:12;23.40;1.00
7248;DHT22;3665;51.034;13.642;2023-05-10T11:13:41;24.00;1.00
7248;DHT22;3665;51.034;13.642;2023-05-10T11:18:37;24.20;1.00
7248;DHT22;3665;51.034;13.642;2023-05-10T11:23:32;24.00;1.00
7248;DHT22;3665;51.034;13.642;2023-05-10T11:28:17;23.60;1.00
7248;DHT22;3665;51.034;13.642;2023-05-10T11:33:03;24.20;1.00
7248;DHT22;3665;51.034;13.642;2023-05-10T11:37:53;24.30;1.00
7248;DHT22;3665;51.034;13.642;2023-05-10T11:42:39;24.00;1.00
7248;DHT22;3665;51.034;13.642;2023-05-10T11:47:26;24.10;1.00
7248;DHT22;3665;51.034;13.642;2023-05-10T11:52:19;24.00;1.00
7248;DHT22;3665;51.034;13.642;2023-05-10T11:57:06;23.60;1.00
7248;DHT22;3665;51.034;13.642;2023-05-10T12:01:50;24.00;1.00
7248;DHT22;3665;51.034;13.642;2023-05-10T12:06:43;24.30;1.00
7248;DHT22;3665;51.034;13.642;2023-05-10T12:17:11;24.70;1.00
7248;DHT22;3665;51.034;13.642;2023-05-10T12:22:27;24.60;1.00
7248;DHT22;3665;51.034;13.642;2023-05-10T12:27:11;23.50;1.00
7248;DHT22;3665;51.034;13.642;2023-05-10T12:31:59;22.80;1.00
7248;DHT22;3665;51.034;13.642;2023-05-10T12:36:50;22.30;1.00
7248;DHT22;3665;51.034;13.642;2023-05-10T12:41:38;22.10;1.00
7248;DHT22;3665;51.034;13.642;2023-05-10T12:46:29;21.80;1.00
7248;DHT22;3665;51.034;13.642;2023-05-10T12:51:22;21.70;1.00
7248;DHT22;3665;51.034;13.642;2023-05-10T12:56:18;22.00;1.00
7248;DHT22;3665;51.034;13.642;2023-05-10T13:01:10;21.10;1.00
7248;DHT22;3665;51.034;13.642;2023-05-10T13:06:07;20.80;1.00
7248;DHT22;3665;51.034;13.642;2023-05-10T13:10:54;21.10;1.00
7248;DHT22;3665;51.034;13.642;2023-05-10T13:15:51;21.40;1.00
7248;DHT22;3665;51.034;13.642;2023-05-10T13:20:38;21.30;1.00
7248;DHT22;3665;51.034;13.642;2023-05-10T13:25:34;21.50;1.00
7248;DHT22;3665;51.034;13.642;2023-05-10T13:30:24;21.60;1.00
7248;DHT22;3665;51.034;13.642;2023-05-10T13:35:12;21.70;1.00
7248;DHT22;3665;51.034;13.642;2023-05-10T13:40:01;22.10;1.00
7248;DHT22;3665;51.034;13.642;2023-05-10T13:44:47;22.10;1.00
7248;DHT22;3665;51.034;13.642;2023-05-10T13:49:35;22.20;1.00
7248;DHT22;3665;51.034;13.642;2023-05-10T13:54:23;22.00;1.00
7248;DHT22;3665;51.034;13.642;2023-05-10T13:59:13;22.40;1.00
7248;DHT22;3665;51.034;13.642;2023-05-10T14:03:57;22.00;1.00
7248;DHT22;3665;51.034;13.642;2023-05-10T14:08:46;22.00;1.00
7248;DHT22;3665;51.034;13.642;2023-05-10T14:13:35;21.80;1.00
7248;DHT22;3665;51.034;13.642;2023-05-10T14:18:19;21.70;1.00
7248;DHT22;3665;51.034;13.642;2023-05-10T14:23:10;21.60;1.00
7248;DHT22;3665;51.034;13.642;2023-05-10T14:27:58;20.60;1.00
7248;DHT22;3665;51.034;13.642;2023-05-10T14:32:50;20.60;1.00
7248;DHT22;3665;51.034;13.642;2023-05-10T14:37:36;20.40;1.00
7248;DHT22;3665;51.034;13.642;2023-05-10T14:42:22;19.70;1.00
7248;DHT22;3665;51.034;13.642;2023-05-10T14:47:13;19.60;1.00
7248;DHT22;3665;51.034;13.642;2023-05-10T14:52:06;19.60;1.00
7248;DHT22;3665;51.034;13.642;2023-05-10T14:57:03;19.40;1.00
7248;DHT22;3665;51.034;13.642;2023-05-10T15:01:53;19.50;1.00
7248;DHT22;3665;51.034;13.642;2023-05-10T15:06:39;19.50;1.00
7248;DHT22;3665;51.034;13.642;2023-05-10T15:11:29;19.50;1.00
7248;DHT22;3665;51.034;13.642;2023-05-10T15:16:18;19.90;1.00
7248;DHT22;3665;51.034;13.642;2023-05-10T15:21:04;19.80;1.00
7248;DHT22;3665;51.034;13.642;2023-05-10T15:25:53;19.80;1.00
7248;DHT22;3665;51.034;13.642;2023-05-10T15:30:39;19.50;1.00
7248;DHT22;3665;51.034;13.642;2023-05-10T15:35:29;19.30;1.00
7248;DHT22;3665;51.034;13.642;2023-05-10T15:40:15;19.50;1.00
7248;DHT22;3665;51.034;13.642;2023-05-10T15:45:05;18.70;1.00
7248;DHT22;3665;51.034;13.642;2023-05-10T15:49:51;18.20;1.00
7248;DHT22;3665;51.034;13.642;2023-05-10T15:54:41;17.90;1.00
7248;DHT22;3665;51.034;13.642;2023-05-10T15:59:27;17.70;1.00
7248;DHT22;3665;51.034;13.642;2023-05-10T16:04:10;17.40;1.00
7248;DHT22;3665;51.034;13.642;2023-05-10T16:09:06;17.30;1.00
7248;DHT22;3665;51.034;13.642;2023-05-10T16:13:51;17.30;1.00
7248;DHT22;3665;51.034;13.642;2023-05-10T16:18:36;17.00;1.00
7248;DHT22;3665;51.034;13.642;2023-05-10T16:23:21;17.20;1.00
7248;DHT22;3665;51.034;13.642;2023-05-10T16:28:15;17.10;1.00
7248;DHT22;3665;51.034;13.642;2023-05-10T16:33:06;17.20;1.00
7248;DHT22;3665;51.034;13.642;2023-05-10T16:37:51;17.20;1.00
7248;DHT22;3665;51.034;13.642;2023-05-10T16:42:38;17.30;1.00
7248;DHT22;3665;51.034;13.642;2023-05-10T16:47:36;17.30;1.00
7248;DHT22;3665;51.034;13.642;2023-05-10T16:52:33;16.80;1.00
7248;DHT22;3665;51.034;13.642;2023-05-10T16:57:19;16.70;1.00
7248;DHT22;3665;51.034;13.642;2023-05-10T17:02:08;16.70;1.00
7248;DHT22;3665;51.034;13.642;2023-05-10T17:06:55;16.70;1.00
7248;DHT22;3665;51.034;13.642;2023-05-10T17:11:41;16.70;1.00
7248;DHT22;3665;51.034;13.642;2023-05-10T17:16:31;16.60;1.00
7248;DHT22;3665;51.034;13.642;2023-05-10T17:21:19;16.70;1.00
7248;DHT22;3665;51.034;13.642;2023-05-10T17:26:07;16.50;1.00
7248;DHT22;3665;51.034;13.642;2023-05-10T17:30:59;16.50;1.00
7248;DHT22;3665;51.034;13.642;2023-05-10T17:35:44;16.30;1.00
7248;DHT22;3665;51.034;13.642;2023-05-10T17:40:32;16.10;1.00
7248;DHT22;3665;51.034;13.642;2023-05-10T17:45:19;15.80;1.00
7248;DHT22;3665;51.034;13.642;2023-05-10T17:50:12;15.80;1.00
7248;DHT22;3665;51.034;13.642;2023-05-10T17:54:56;15.70;1.00
7248;DHT22;3665;51.034;13.642;2023-05-10T17:59:40;15.80;1.00
7248;DHT22;3665;51.034;13.642;2023-05-10T18:04:24;15.70;1.00
7248;DHT22;3665;51.034;13.642;2023-05-10T18:09:12;15.40;1.00
7248;DHT22;3665;51.034;13.642;2023-05-10T18:14:07;15.20;1.00
7248;DHT22;3665;51.034;13.642;2023-05-10T18:18:56;15.10;1.00
7248;DHT22;3665;51.034;13.642;2023-05-10T18:23:44;15.00;1.00
7248;DHT22;3665;51.034;13.642;2023-05-10T18:28:34;14.90;1.00
7248;DHT22;3665;51.034;13.642;2023-05-10T18:33:19;14.90;1.00
7248;DHT22;3665;51.034;13.642;2023-05-10T18:38:03;14.70;1.00
7248;DHT22;3665;51.034;13.642;2023-05-10T18:42:56;14.50;1.00
7248;DHT22;3665;51.034;13.642;2023-05-10T18:47:43;14.40;1.00
7248;DHT22;3665;51.034;13.642;2023-05-10T18:52:27;14.30;1.00
7248;DHT22;3665;51.034;13.642;2023-05-10T18:57:13;14.20;1.00
7248;DHT22;3665;51.034;13.642;2023-05-10T19:02:11;14.10;1.00
7248;DHT22;3665;51.034;13.642;2023-05-10T19:06:54;13.90;1.00
7248;DHT22;3665;51.034;13.642;2023-05-10T19:11:40;13.70;1.00
7248;DHT22;3665;51.034;13.642;2023-05-10T19:16:31;13.40;1.00
7248;DHT22;3665;51.034;13.642;2023-05-10T19:21:20;13.20;1.00
7248;DHT22;3665;51.034;13.642;2023-05-10T19:26:05;12.90;1.00
7248;DHT22;3665;51.034;13.642;2023-05-10T19:30:52;12.80;1.00
7248;DHT22;3665;51.034;13.642;2023-05-10T19:35:36;12.80;1.00
7248;DHT22;3665;51.034;13.642;2023-05-10T19:40:35;12.90;1.00
7248;DHT22;3665;51.034;13.642;2023-05-10T19:45:19;12.90;1.00
7248;DHT22;3665;51.034;13.642;2023-05-10T19:50:08;12.90;1.00
7248;DHT22;3665;51.034;13.642;2023-05-10T19:54:55;12.90;1.00
7248;DHT22;3665;51.034;13.642;2023-05-10T19:59:43;12.80;1.00
7248;DHT22;3665;51.034;13.642;2023-05-10T20:04:30;12.70;1.00
7248;DHT22;3665;51.034;13.642;2023-05-10T20:09:21;12.70;1.00
7248;DHT22;3665;51.034;13.642;2023-05-10T20:14:08;12.40;1.00
7248;DHT22;3665;51.034;13.642;2023-05-10T20:18:56;12.20;1.00
7248;DHT22;3665;51.034;13.642;2023-05-10T20:23:44;11.90;1.00
7248;DHT22;3665;51.034;13.642;2023-05-10T20:28:33;11.70;1.00
7248;DHT22;3665;51.034;13.642;2023-05-10T20:33:17;11.60;99.90
7248;DHT22;3665;51.034;13.642;2023-05-10T20:38:10;11.40;99.90
7248;DHT22;3665;51.034;13.642;2023-05-10T20:42:55;11.20;99.90
7248;DHT22;3665;51.034;13.642;2023-05-10T20:47:44;11.00;99.90
7248;DHT22;3665;51.034;13.642;2023-05-10T20:52:34;10.90;1.00
7248;DHT22;3665;51.034;13.642;2023-05-10T20:57:19;10.90;99.90
7248;DHT22;3665;51.034;13.642;2023-05-10T21:02:08;10.80;98.10
7248;DHT22;3665;51.034;13.642;2023-05-10T21:06:57;10.90;1.00
7248;DHT22;3665;51.034;13.642;2023-05-10T21:11:43;10.70;1.00
7248;DHT22;3665;51.034;13.642;2023-05-10T21:16:35;10.70;1.00
7248;DHT22;3665;51.034;13.642;2023-05-10T21:21:18;10.60;99.90
7248;DHT22;3665;51.034;13.642;2023-05-10T21:26:02;10.60;1.00
7248;DHT22;3665;51.034;13.642;2023-05-10T21:30:58;10.70;99.90
7248;DHT22;3665;51.034;13.642;2023-05-10T21:36:08;10.70;99.90
7248;DHT22;3665;51.034;13.642;2023-05-10T21:40:57;10.60;99.90
7248;DHT22;3665;51.034;13.642;2023-05-10T21:45:54;10.60;99.90
7248;DHT22;3665;51.034;13.642;2023-05-10T21:50:40;10.60;99.90
7248;DHT22;3665;51.034;13.642;2023-05-10T21:55:29;10.60;99.90
7248;DHT22;3665;51.034;13.642;2023-05-10T22:00:15;10.60;99.90
7248;DHT22;3665;51.034;13.642;2023-05-10T22:05:03;10.60;99.90
7248;DHT22;3665;51.034;13.642;2023-05-10T22:09:53;10.50;99.90
7248;DHT22;3665;51.034;13.642;2023-05-10T22:14:41;10.50;99.90
7248;DHT22;3665;51.034;13.642;2023-05-10T22:19:27;10.40;99.90
7248;DHT22;3665;51.034;13.642;2023-05-10T22:24:14;10.30;99.90
7248;DHT22;3665;51.034;13.642;2023-05-10T22:29:00;10.20;99.90
7248;DHT22;3665;51.034;13.642;2023-05-10T22:33:51;10.20;99.90
7248;DHT22;3665;51.034;13.642;2023-05-10T22:38:40;10.20;99.90
7248;DHT22;3665;51.034;13.642;2023-05-10T22:43:27;10.40;99.90
7248;DHT22;3665;51.034;13.642;2023-05-10T22:48:17;10.40;99.90
7248;DHT22;3665;51.034;13.642;2023-05-10T22:53:03;10.50;99.90
7248;DHT22;3665;51.034;13.642;2023-05-10T22:57:53;10.50;99.90
7248;DHT22;3665;51.034;13.642;2023-05-10T23:02:39;10.60;99.90
7248;DHT22;3665;51.034;13.642;2023-05-10T23:07:29;10.70;99.90
7248;DHT22;3665;51.034;13.642;2023-05-10T23:12:17;10.80;99.90
7248;DHT22;3665;51.034;13.642;2023-05-10T23:17:06;10.90;99.90
7248;DHT22;3665;51.034;13.642;2023-05-10T23:21:52;11.00;99.90
7248;DHT22;3665;51.034;13.642;2023-05-10T23:26:39;11.10;99.90
7248;DHT22;3665;51.034;13.642;2023-05-10T23:31:28;11.10;99.90
7248;DHT22;3665;51.034;13.642;2023-05-10T23:36:18;11.20;99.90
7248;DHT22;3665;51.034;13.642;2023-05-10T23:41:04;11.20;99.90
7248;DHT22;3665;51.034;13.642;2023-05-10T23:45:54;11.20;99.90
7248;DHT22;3665;51.034;13.642;2023-05-10T23:50:43;11.30;99.90
7248;DHT22;3665;51.034;13.642;2023-05-10T23:55:29;11.20;99.90
